CFG832 LMML-LGKR
Flight info
| Callsign | CFG832 |
|---|---|
| Flight time | 1h 1m |
| Altitude | 36000 |
| Route | VESOD DCT INROF DCT PESAR DCT SODMO DCT AMREX DCT DINOB UM600 IDIMI |
| Aircraft | A321/M-SDE3FGHIRWY/LB1 |
Departure
| Time | 2026-05-01 08:23 |
|---|---|
| Airport | Malta International Airport (LMML) |
Arrival
| Time | 2026-05-01 09:24 |
|---|---|
| Airport | Corfu Ioannis Kapodistrias International Airport (LGKR) |
| Time | Latitude | Longitude | Altitude | Speed | Heading |
|---|---|---|---|---|---|
| 2026-05-01 07:56 | 35.84766 | 14.49576 | 250 ft | 0 kts | 0° |
| 2026-05-01 08:12 | 35.84758 | 14.49576 | 251 ft | 3 kts | 0° |
| 2026-05-01 08:12 | 35.84722 | 14.49564 | 251 ft | 3 kts | 41° |
| 2026-05-01 08:13 | 35.84713 | 14.49546 | 251 ft | 1 kts | 91° |
| 2026-05-01 08:13 | 35.84713 | 14.49545 | 251 ft | 0 kts | 91° |
| 2026-05-01 08:17 | 35.84707 | 14.49559 | 251 ft | 5 kts | 127° |
| 2026-05-01 08:17 | 35.84643 | 14.49579 | 251 ft | 12 kts | 186° |
| 2026-05-01 08:17 | 35.84592 | 14.49520 | 251 ft | 10 kts | 256° |
| 2026-05-01 08:18 | 35.84617 | 14.49452 | 251 ft | 9 kts | 314° |
| 2026-05-01 08:18 | 35.84721 | 14.49325 | 251 ft | 19 kts | 316° |
| 2026-05-01 08:19 | 35.84913 | 14.49093 | 251 ft | 19 kts | 310° |
| 2026-05-01 08:19 | 35.84972 | 14.48954 | 250 ft | 18 kts | 289° |
| 2026-05-01 08:19 | 35.85012 | 14.48814 | 251 ft | 16 kts | 289° |
| 2026-05-01 08:19 | 35.85048 | 14.48688 | 252 ft | 15 kts | 289° |
| 2026-05-01 08:20 | 35.85089 | 14.48577 | 252 ft | 14 kts | 303° |
| 2026-05-01 08:20 | 35.85149 | 14.48494 | 252 ft | 12 kts | 314° |
| 2026-05-01 08:20 | 35.85228 | 14.48397 | 252 ft | 21 kts | 315° |
| 2026-05-01 08:20 | 35.85351 | 14.48249 | 251 ft | 25 kts | 315° |
| 2026-05-01 08:21 | 35.85461 | 14.48126 | 249 ft | 17 kts | 325° |
| 2026-05-01 08:21 | 35.85550 | 14.48066 | 249 ft | 9 kts | 338° |
| 2026-05-01 08:21 | 35.85606 | 14.48043 | 251 ft | 7 kts | 344° |
| 2026-05-01 08:21 | 35.85647 | 14.48028 | 252 ft | 5 kts | 343° |
| 2026-05-01 08:22 | 35.85670 | 14.48010 | 252 ft | 3 kts | 315° |
| 2026-05-01 08:22 | 35.85667 | 14.47951 | 251 ft | 13 kts | 235° |
| 2026-05-01 08:22 | 35.85589 | 14.47949 | 250 ft | 14 kts | 139° |
| 2026-05-01 08:22 | 35.85474 | 14.48094 | 249 ft | 42 kts | 134° |
| 2026-05-01 08:23 | 35.85091 | 14.48568 | 252 ft | 110 kts | 135° |
| 2026-05-01 08:23 | 35.84430 | 14.49408 | 291 ft | 156 kts | 129° |
| 2026-05-01 08:23 | 35.83641 | 14.50340 | 941 ft | 156 kts | 132° |
| 2026-05-01 08:23 | 35.82775 | 14.51152 | 1543 ft | 162 kts | 148° |
| 2026-05-01 08:24 | 35.81581 | 14.51348 | 1925 ft | 191 kts | 186° |
| 2026-05-01 08:24 | 35.80309 | 14.50696 | 2421 ft | 200 kts | 196° |
| 2026-05-01 08:24 | 35.78936 | 14.50467 | 2882 ft | 205 kts | 173° |
| 2026-05-01 08:24 | 35.77491 | 14.50752 | 3225 ft | 217 kts | 161° |
| 2026-05-01 08:25 | 35.76057 | 14.51483 | 3531 ft | 238 kts | 148° |
| 2026-05-01 08:25 | 35.74615 | 14.52688 | 3881 ft | 261 kts | 137° |
| 2026-05-01 08:25 | 35.73328 | 14.54292 | 4589 ft | 268 kts | 127° |
| 2026-05-01 08:25 | 35.72421 | 14.56311 | 5238 ft | 275 kts | 104° |
| 2026-05-01 08:26 | 35.72214 | 14.58643 | 5930 ft | 277 kts | 80° |
| 2026-05-01 08:26 | 35.72727 | 14.60910 | 6690 ft | 276 kts | 61° |
| 2026-05-01 08:26 | 35.73791 | 14.62874 | 7421 ft | 278 kts | 48° |
| 2026-05-01 08:26 | 35.74992 | 14.64771 | 8185 ft | 283 kts | 48° |
| 2026-05-01 08:27 | 35.76204 | 14.66704 | 8948 ft | 288 kts | 49° |
| 2026-05-01 08:27 | 35.77439 | 14.68682 | 9704 ft | 294 kts | 48° |
| 2026-05-01 08:27 | 35.78696 | 14.70698 | 10374 ft | 302 kts | 48° |
| 2026-05-01 08:27 | 35.80029 | 14.72825 | 10596 ft | 325 kts | 48° |
| 2026-05-01 08:28 | 35.81453 | 14.75097 | 10926 ft | 342 kts | 49° |
| 2026-05-01 08:28 | 35.82920 | 14.77448 | 11571 ft | 349 kts | 49° |
| 2026-05-01 08:28 | 35.84388 | 14.79807 | 12264 ft | 353 kts | 49° |
| 2026-05-01 08:28 | 35.85896 | 14.82229 | 12967 ft | 358 kts | 48° |
| 2026-05-01 08:29 | 35.87427 | 14.84684 | 13685 ft | 363 kts | 48° |
| 2026-05-01 08:29 | 35.88974 | 14.87169 | 14334 ft | 367 kts | 48° |
| 2026-05-01 08:29 | 35.90535 | 14.89680 | 14962 ft | 371 kts | 48° |
| 2026-05-01 08:29 | 35.92122 | 14.92233 | 15617 ft | 375 kts | 48° |
| 2026-05-01 08:30 | 35.93718 | 14.94798 | 16254 ft | 379 kts | 48° |
| 2026-05-01 08:30 | 35.95329 | 14.97387 | 16872 ft | 383 kts | 48° |
| 2026-05-01 08:30 | 35.96956 | 15.00006 | 17510 ft | 387 kts | 48° |
| 2026-05-01 08:30 | 35.98605 | 15.02664 | 18126 ft | 391 kts | 48° |
| 2026-05-01 08:31 | 36.00261 | 15.05339 | 18677 ft | 395 kts | 48° |
| 2026-05-01 08:31 | 36.01940 | 15.08054 | 19198 ft | 399 kts | 48° |
| 2026-05-01 08:31 | 36.03632 | 15.10794 | 19704 ft | 403 kts | 48° |
| 2026-05-01 08:31 | 36.05343 | 15.13565 | 20202 ft | 407 kts | 48° |
| 2026-05-01 08:32 | 36.07049 | 15.16327 | 20677 ft | 411 kts | 48° |
| 2026-05-01 08:32 | 36.08795 | 15.19151 | 21189 ft | 415 kts | 47° |
| 2026-05-01 08:32 | 36.10553 | 15.22000 | 21674 ft | 419 kts | 47° |
| 2026-05-01 08:32 | 36.12330 | 15.24880 | 22156 ft | 423 kts | 47° |
| 2026-05-01 08:33 | 36.14117 | 15.27782 | 22633 ft | 427 kts | 47° |
| 2026-05-01 08:33 | 36.15925 | 15.30717 | 23106 ft | 431 kts | 47° |
| 2026-05-01 08:33 | 36.17749 | 15.33680 | 23566 ft | 435 kts | 47° |
| 2026-05-01 08:33 | 36.19588 | 15.36671 | 23971 ft | 438 kts | 47° |
| 2026-05-01 08:34 | 36.21438 | 15.39686 | 24358 ft | 441 kts | 47° |
| 2026-05-01 08:34 | 36.23300 | 15.42724 | 24769 ft | 444 kts | 47° |
| 2026-05-01 08:34 | 36.25172 | 15.45781 | 25180 ft | 446 kts | 47° |
| 2026-05-01 08:34 | 36.27051 | 15.48859 | 25574 ft | 449 kts | 47° |
| 2026-05-01 08:35 | 36.28921 | 15.51925 | 25958 ft | 451 kts | 47° |
| 2026-05-01 08:35 | 36.30817 | 15.55032 | 26345 ft | 454 kts | 47° |
| 2026-05-01 08:35 | 36.32735 | 15.58172 | 26725 ft | 457 kts | 47° |
| 2026-05-01 08:35 | 36.34657 | 15.61320 | 27096 ft | 459 kts | 47° |
| 2026-05-01 08:36 | 36.36590 | 15.64486 | 27466 ft | 462 kts | 46° |
| 2026-05-01 08:36 | 36.38531 | 15.67670 | 27822 ft | 465 kts | 47° |
| 2026-05-01 08:36 | 36.40490 | 15.70890 | 28178 ft | 467 kts | 47° |
| 2026-05-01 08:36 | 36.42456 | 15.74121 | 28561 ft | 470 kts | 46° |
| 2026-05-01 08:37 | 36.44437 | 15.77376 | 28882 ft | 473 kts | 46° |
| 2026-05-01 08:37 | 36.46425 | 15.80652 | 29211 ft | 476 kts | 46° |
| 2026-05-01 08:37 | 36.48421 | 15.83952 | 29545 ft | 479 kts | 46° |
| 2026-05-01 08:37 | 36.50405 | 15.87237 | 29857 ft | 481 kts | 46° |
| 2026-05-01 08:38 | 36.52421 | 15.90576 | 30191 ft | 484 kts | 46° |
| 2026-05-01 08:38 | 36.54449 | 15.93929 | 30452 ft | 486 kts | 46° |
| 2026-05-01 08:38 | 36.56489 | 15.97299 | 30705 ft | 488 kts | 46° |
| 2026-05-01 08:38 | 36.58541 | 16.00692 | 30965 ft | 491 kts | 46° |
| 2026-05-01 08:39 | 36.60598 | 16.04103 | 31221 ft | 494 kts | 46° |
| 2026-05-01 08:39 | 36.62656 | 16.07532 | 31517 ft | 496 kts | 46° |
| 2026-05-01 08:39 | 36.64730 | 16.10994 | 31840 ft | 497 kts | 46° |
| 2026-05-01 08:39 | 36.66777 | 16.14408 | 32209 ft | 497 kts | 46° |
| 2026-05-01 08:40 | 36.70913 | 16.21314 | 32949 ft | 497 kts | 46° |
| 2026-05-01 08:40 | 36.72983 | 16.24780 | 33329 ft | 497 kts | 46° |
| 2026-05-01 08:40 | 36.75048 | 16.28239 | 33702 ft | 497 kts | 46° |
| 2026-05-01 08:41 | 36.77117 | 16.31698 | 34074 ft | 497 kts | 46° |
| 2026-05-01 08:41 | 36.79189 | 16.35162 | 34398 ft | 497 kts | 46° |
| 2026-05-01 08:41 | 36.81252 | 16.38616 | 34724 ft | 497 kts | 46° |
| 2026-05-01 08:41 | 36.83293 | 16.42045 | 34978 ft | 498 kts | 46° |
| 2026-05-01 08:42 | 36.85373 | 16.45497 | 35286 ft | 495 kts | 43° |
| 2026-05-01 08:42 | 36.87699 | 16.48609 | 35539 ft | 487 kts | 38° |
| 2026-05-01 08:42 | 36.90056 | 16.51635 | 35784 ft | 485 kts | 38° |
| 2026-05-01 08:42 | 36.92420 | 16.54658 | 36013 ft | 485 kts | 38° |
| 2026-05-01 08:43 | 36.94778 | 16.57670 | 36130 ft | 485 kts | 38° |
| 2026-05-01 08:43 | 36.97127 | 16.60679 | 36149 ft | 482 kts | 38° |
| 2026-05-01 08:43 | 37.01808 | 16.66701 | 36157 ft | 481 kts | 38° |
| 2026-05-01 08:44 | 37.06452 | 16.72683 | 36149 ft | 482 kts | 38° |
| 2026-05-01 08:44 | 37.11127 | 16.78705 | 36149 ft | 481 kts | 38° |
| 2026-05-01 08:45 | 37.15775 | 16.84710 | 36146 ft | 482 kts | 38° |
| 2026-05-01 08:45 | 37.20445 | 16.90766 | 36145 ft | 482 kts | 38° |
| 2026-05-01 08:46 | 37.25085 | 16.96784 | 36147 ft | 481 kts | 38° |
| 2026-05-01 08:46 | 37.29749 | 17.02835 | 36147 ft | 481 kts | 38° |
| 2026-05-01 08:47 | 37.34407 | 17.08897 | 36142 ft | 482 kts | 38° |
| 2026-05-01 08:47 | 37.39053 | 17.14962 | 36166 ft | 482 kts | 38° |
| 2026-05-01 08:48 | 37.43706 | 17.21053 | 36173 ft | 482 kts | 38° |
| 2026-05-01 08:48 | 37.48353 | 17.27138 | 36170 ft | 482 kts | 38° |
| 2026-05-01 08:49 | 37.52970 | 17.33195 | 36156 ft | 482 kts | 38° |
| 2026-05-01 08:49 | 37.57617 | 17.39298 | 36153 ft | 483 kts | 38° |
| 2026-05-01 08:50 | 37.62267 | 17.45418 | 36181 ft | 483 kts | 38° |
| 2026-05-01 08:50 | 37.66911 | 17.51553 | 36168 ft | 483 kts | 38° |
| 2026-05-01 08:51 | 37.71550 | 17.57695 | 36164 ft | 483 kts | 38° |
| 2026-05-01 08:51 | 37.76186 | 17.63833 | 36157 ft | 483 kts | 38° |
| 2026-05-01 08:52 | 37.80811 | 17.69969 | 36164 ft | 481 kts | 38° |
| 2026-05-01 08:52 | 37.85383 | 17.76061 | 36157 ft | 480 kts | 38° |
| 2026-05-01 08:53 | 37.89986 | 17.82184 | 36148 ft | 481 kts | 38° |
| 2026-05-01 08:53 | 37.94593 | 17.88328 | 36144 ft | 481 kts | 38° |
| 2026-05-01 08:54 | 37.99161 | 17.94494 | 36147 ft | 480 kts | 39° |
| 2026-05-01 08:54 | 38.02870 | 17.99735 | 36146 ft | 480 kts | 40° |
| 2026-05-01 08:55 | 38.07286 | 18.06097 | 36138 ft | 481 kts | 40° |
| 2026-05-01 08:55 | 38.11674 | 18.12398 | 36144 ft | 480 kts | 40° |
| 2026-05-01 08:56 | 38.16125 | 18.18740 | 36173 ft | 480 kts | 39° |
| 2026-05-01 08:56 | 38.18354 | 18.21900 | 35927 ft | 480 kts | 39° |
| 2026-05-01 08:56 | 38.20621 | 18.25103 | 34806 ft | 494 kts | 39° |
| 2026-05-01 08:57 | 38.22941 | 18.28386 | 33874 ft | 501 kts | 39° |
| 2026-05-01 08:57 | 38.25272 | 18.31713 | 32932 ft | 505 kts | 39° |
| 2026-05-01 08:57 | 38.27608 | 18.35069 | 32016 ft | 508 kts | 40° |
| 2026-05-01 08:57 | 38.29937 | 18.38426 | 31129 ft | 511 kts | 40° |
| 2026-05-01 08:58 | 38.32297 | 18.41829 | 30225 ft | 514 kts | 40° |
| 2026-05-01 08:58 | 38.34681 | 18.45265 | 29181 ft | 518 kts | 40° |
| 2026-05-01 08:58 | 38.37075 | 18.48709 | 28449 ft | 518 kts | 40° |
| 2026-05-01 08:58 | 38.39409 | 18.52068 | 28195 ft | 520 kts | 40° |
| 2026-05-01 08:59 | 38.41817 | 18.55537 | 28093 ft | 520 kts | 40° |
| 2026-05-01 08:59 | 38.44222 | 18.59004 | 28116 ft | 521 kts | 40° |
| 2026-05-01 08:59 | 38.49016 | 18.65931 | 28114 ft | 521 kts | 40° |
| 2026-05-01 09:00 | 38.53801 | 18.72881 | 28099 ft | 520 kts | 40° |
| 2026-05-01 09:00 | 38.58579 | 18.79827 | 28115 ft | 520 kts | 40° |
| 2026-05-01 09:01 | 38.63354 | 18.86758 | 28105 ft | 519 kts | 40° |
| 2026-05-01 09:01 | 38.65724 | 18.90211 | 27638 ft | 514 kts | 41° |
| 2026-05-01 09:01 | 38.68063 | 18.93631 | 27127 ft | 505 kts | 41° |
| 2026-05-01 09:02 | 38.70340 | 18.96971 | 26371 ft | 503 kts | 41° |
| 2026-05-01 09:02 | 38.72637 | 19.00331 | 25687 ft | 498 kts | 41° |
| 2026-05-01 09:02 | 38.74908 | 19.03651 | 24976 ft | 494 kts | 42° |
| 2026-05-01 09:02 | 38.77176 | 19.06970 | 24156 ft | 492 kts | 42° |
| 2026-05-01 09:03 | 38.79431 | 19.10280 | 23326 ft | 490 kts | 43° |
| 2026-05-01 09:03 | 38.81664 | 19.13565 | 22364 ft | 488 kts | 43° |
| 2026-05-01 09:03 | 38.83887 | 19.16838 | 21448 ft | 486 kts | 44° |
| 2026-05-01 09:03 | 38.86103 | 19.20101 | 20555 ft | 483 kts | 44° |
| 2026-05-01 09:04 | 38.88294 | 19.23332 | 19927 ft | 476 kts | 44° |
| 2026-05-01 09:04 | 38.90423 | 19.26478 | 19269 ft | 469 kts | 45° |
| 2026-05-01 09:04 | 38.92546 | 19.29623 | 18604 ft | 462 kts | 45° |
| 2026-05-01 09:04 | 38.94637 | 19.32725 | 17890 ft | 456 kts | 45° |
| 2026-05-01 09:05 | 38.96702 | 19.35794 | 17177 ft | 450 kts | 45° |
| 2026-05-01 09:05 | 38.98734 | 19.38815 | 16505 ft | 443 kts | 46° |
| 2026-05-01 09:05 | 39.00742 | 19.41798 | 15824 ft | 437 kts | 46° |
| 2026-05-01 09:05 | 39.02715 | 19.44727 | 15172 ft | 430 kts | 46° |
| 2026-05-01 09:06 | 39.04661 | 19.47610 | 14527 ft | 424 kts | 46° |
| 2026-05-01 09:06 | 39.06580 | 19.50452 | 13914 ft | 417 kts | 47° |
| 2026-05-01 09:06 | 39.08466 | 19.53253 | 13290 ft | 410 kts | 47° |
| 2026-05-01 09:06 | 39.10286 | 19.55970 | 13148 ft | 391 kts | 47° |
| 2026-05-01 09:07 | 39.11998 | 19.58541 | 13008 ft | 375 kts | 47° |
| 2026-05-01 09:07 | 39.13655 | 19.61031 | 12873 ft | 359 kts | 47° |
| 2026-05-01 09:07 | 39.15252 | 19.63428 | 12743 ft | 345 kts | 47° |
| 2026-05-01 09:07 | 39.16788 | 19.65726 | 12605 ft | 332 kts | 46° |
| 2026-05-01 09:08 | 39.18267 | 19.67934 | 12474 ft | 320 kts | 46° |
| 2026-05-01 09:08 | 39.19695 | 19.70068 | 12343 ft | 308 kts | 46° |
| 2026-05-01 09:08 | 39.21068 | 19.72127 | 12220 ft | 297 kts | 46° |
| 2026-05-01 09:08 | 39.22393 | 19.74116 | 12091 ft | 287 kts | 46° |
| 2026-05-01 09:09 | 39.23671 | 19.76033 | 11961 ft | 277 kts | 46° |
| 2026-05-01 09:09 | 39.24903 | 19.77881 | 11845 ft | 264 kts | 46° |
| 2026-05-01 09:09 | 39.26067 | 19.79632 | 11732 ft | 251 kts | 46° |
| 2026-05-01 09:09 | 39.27177 | 19.81300 | 11624 ft | 236 kts | 47° |
| 2026-05-01 09:10 | 39.28207 | 19.82848 | 11445 ft | 220 kts | 47° |
| 2026-05-01 09:10 | 39.29189 | 19.84326 | 11059 ft | 215 kts | 47° |
| 2026-05-01 09:10 | 39.30118 | 19.85829 | 10666 ft | 214 kts | 53° |
| 2026-05-01 09:10 | 39.30941 | 19.87421 | 10259 ft | 212 kts | 55° |
| 2026-05-01 09:11 | 39.31735 | 19.88996 | 9858 ft | 211 kts | 54° |
| 2026-05-01 09:11 | 39.32536 | 19.90567 | 9425 ft | 209 kts | 56° |
| 2026-05-01 09:11 | 39.33335 | 19.92129 | 8986 ft | 207 kts | 55° |
| 2026-05-01 09:11 | 39.34126 | 19.93669 | 8563 ft | 205 kts | 55° |
| 2026-05-01 09:12 | 39.34919 | 19.95183 | 8149 ft | 203 kts | 55° |
| 2026-05-01 09:12 | 39.35718 | 19.96688 | 7735 ft | 201 kts | 55° |
| 2026-05-01 09:12 | 39.36516 | 19.98167 | 7333 ft | 199 kts | 55° |
| 2026-05-01 09:12 | 39.37233 | 19.99684 | 6949 ft | 197 kts | 69° |
| 2026-05-01 09:13 | 39.37515 | 20.01398 | 6540 ft | 195 kts | 83° |
| 2026-05-01 09:13 | 39.37662 | 20.03143 | 6136 ft | 195 kts | 85° |
| 2026-05-01 09:13 | 39.37798 | 20.04880 | 5742 ft | 193 kts | 85° |
| 2026-05-01 09:13 | 39.37927 | 20.06590 | 5458 ft | 191 kts | 89° |
| 2026-05-01 09:14 | 39.37645 | 20.08241 | 5205 ft | 188 kts | 112° |
| 2026-05-01 09:14 | 39.37130 | 20.09794 | 5057 ft | 188 kts | 115° |
| 2026-05-01 09:14 | 39.36591 | 20.11335 | 5016 ft | 187 kts | 115° |
| 2026-05-01 09:14 | 39.36059 | 20.12854 | 5017 ft | 188 kts | 115° |
| 2026-05-01 09:15 | 39.35524 | 20.14382 | 5021 ft | 186 kts | 114° |
| 2026-05-01 09:15 | 39.35016 | 20.15918 | 5020 ft | 187 kts | 105° |
| 2026-05-01 09:15 | 39.35139 | 20.17562 | 5022 ft | 189 kts | 65° |
| 2026-05-01 09:15 | 39.36021 | 20.18800 | 5021 ft | 186 kts | 40° |
| 2026-05-01 09:16 | 39.37073 | 20.19739 | 5019 ft | 182 kts | 35° |
| 2026-05-01 09:16 | 39.38131 | 20.20622 | 5014 ft | 178 kts | 34° |
| 2026-05-01 09:16 | 39.39150 | 20.21471 | 5013 ft | 172 kts | 34° |
| 2026-05-01 09:17 | 39.41435 | 20.21540 | 5017 ft | 179 kts | 326° |
| 2026-05-01 09:17 | 39.42165 | 20.20301 | 5019 ft | 178 kts | 287° |
| 2026-05-01 09:17 | 39.42703 | 20.17213 | 4673 ft | 176 kts | 282° |
| 2026-05-01 09:18 | 39.42965 | 20.15655 | 4501 ft | 178 kts | 282° |
| 2026-05-01 09:18 | 39.43496 | 20.12515 | 4144 ft | 177 kts | 282° |
| 2026-05-01 09:19 | 39.44027 | 20.09409 | 3799 ft | 177 kts | 282° |
| 2026-05-01 09:19 | 39.44372 | 20.07887 | 3595 ft | 177 kts | 297° |
| 2026-05-01 09:19 | 39.45123 | 20.06635 | 3420 ft | 177 kts | 317° |
| 2026-05-01 09:20 | 39.46901 | 20.04492 | 3152 ft | 173 kts | 320° |
| 2026-05-01 09:20 | 39.48698 | 20.02434 | 2840 ft | 172 kts | 320° |
| 2026-05-01 09:21 | 39.50446 | 20.00386 | 2518 ft | 159 kts | 320° |
| 2026-05-01 09:21 | 39.51232 | 19.99459 | 2323 ft | 148 kts | 320° |
| 2026-05-01 09:21 | 39.52770 | 19.97742 | 1752 ft | 145 kts | 322° |
| 2026-05-01 09:22 | 39.54286 | 19.96092 | 1321 ft | 141 kts | 321° |
| 2026-05-01 09:22 | 39.55772 | 19.94429 | 924 ft | 141 kts | 321° |
| 2026-05-01 09:23 | 39.56511 | 19.93587 | 736 ft | 141 kts | 320° |
| 2026-05-01 09:23 | 39.58028 | 19.91973 | 355 ft | 140 kts | 330° |
| 2026-05-01 09:24 | 39.59833 | 19.91309 | 13 ft | 128 kts | 352° |
| 2026-05-01 09:24 | 39.60530 | 19.91126 | 5 ft | 62 kts | 348° |
| 2026-05-01 09:24 | 39.60997 | 19.91006 | 5 ft | 14 kts | 348° |
| 2026-05-01 09:25 | 39.61047 | 19.91062 | 6 ft | 3 kts | 69° |
| 2026-05-01 09:25 | 39.61009 | 19.91137 | 8 ft | 10 kts | 168° |
| 2026-05-01 09:26 | 39.60945 | 19.91154 | 8 ft | 9 kts | 169° |
| 2026-05-01 09:26 | 39.60820 | 19.91185 | 7 ft | 9 kts | 168° |
| 2026-05-01 09:26 | 39.60760 | 19.91201 | 7 ft | 9 kts | 168° |
| 2026-05-01 09:27 | 39.60681 | 19.91258 | 8 ft | 5 kts | 81° |
| 2026-05-01 09:27 | 39.60687 | 19.91302 | 8 ft | 5 kts | 78° |
| 2026-05-01 09:27 | 39.60693 | 19.91342 | 8 ft | 4 kts | 79° |
| 2026-05-01 09:28 | 39.60696 | 19.91365 | 8 ft | 0 kts | 80° |